Time;durP1;ratioP1;P1;durP2;ratioP2;P2;SDS_P1;SDS_P2;PMS_P1;PMS_P2;Temp;Humidity;BMP_temperature;BMP_pressure;BME280_temperature;BME280_humidity;BME280_pressure;Samples;Min_cycle;Max_cycle;Signal;HPM_P1;HPM_P2
2022/12/14 00:01:24;;;;;;;27.57;12.60;;;;;;;-145.18;100.00;46797.13;5028283;28;20033;-69
2022/12/14 00:03:49;;;;;;;33.35;13.70;;;;;;;-145.18;100.00;46801.03;5028988;28;20030;-69
2022/12/14 00:06:18;;;;;;;29.77;13.20;;;;;;;-145.18;100.00;46801.03;5028375;28;20045;-69
2022/12/14 00:08:45;;;;;;;24.75;12.70;;;;;;;-145.18;100.00;46789.31;5026880;28;20033;-69
2022/12/14 00:11:13;;;;;;;36.67;14.32;;;;;;;-145.18;100.00;46797.13;5028568;28;20041;-69
2022/12/14 00:13:38;;;;;;;26.90;12.23;;;;;;;-145.18;100.00;46797.13;5029046;28;20037;-69
2022/12/14 00:16:06;;;;;;;27.23;12.07;;;;;;;-145.18;100.00;46804.94;5028640;28;20034;-69
2022/12/14 00:18:32;;;;;;;26.85;11.75;;;;;;;-145.18;100.00;46789.31;5026353;28;20374;-69
2022/12/14 00:21:03;;;;;;;27.67;12.43;;;;;;;-145.18;100.00;46785.41;5028778;28;20041;-69
2022/12/14 00:23:28;;;;;;;27.35;12.57;;;;;;;-145.18;100.00;46789.31;5028799;28;20033;-69
2022/12/14 00:25:54;;;;;;;31.33;12.73;;;;;;;-145.18;100.00;46799.09;5028981;28;20038;-69
2022/12/14 00:28:19;;;;;;;26.23;12.23;;;;;;;-145.18;100.00;46775.66;5028470;28;20092;-69
2022/12/14 00:30:44;;;;;;;26.37;10.93;;;;;;;-145.18;100.00;46801.03;5028843;28;20033;-69
2022/12/14 00:33:10;;;;;;;29.77;12.53;;;;;;;-145.18;100.00;46785.41;5010566;28;20052;-69
2022/12/14 00:35:35;;;;;;;25.63;12.10;;;;;;;-145.18;100.00;46781.50;5028776;28;20041;-69
2022/12/14 00:38:00;;;;;;;24.43;11.80;;;;;;;-145.18;100.00;46783.47;5024447;28;20030;-69
2022/12/14 00:40:26;;;;;;;29.47;12.87;;;;;;;-145.18;100.00;46775.66;5028749;28;20052;-69
2022/12/14 00:42:52;;;;;;;26.05;12.27;;;;;;;-145.18;100.00;46763.91;5028601;28;20037;-69
2022/12/14 00:45:17;;;;;;;31.23;12.97;;;;;;;-145.18;100.00;46773.69;5028335;28;20037;-69
2022/12/14 00:47:42;;;;;;;27.43;12.33;;;;;;;-145.18;100.00;46765.88;5028230;28;20516;-69
2022/12/14 00:50:08;;;;;;;33.00;12.63;;;;;;;-145.18;100.00;46754.16;5028056;28;20383;-69
2022/12/14 00:52:33;;;;;;;23.83;12.23;;;;;;;-145.18;100.00;46758.06;5028324;28;20037;-69
2022/12/14 00:54:59;;;;;;;24.77;11.57;;;;;;;-145.18;100.00;46754.16;5028683;28;20037;-69
2022/12/14 00:57:24;;;;;;;26.90;12.00;;;;;;;-145.18;100.00;46746.34;5028441;28;20048;-69
2022/12/14 00:59:50;;;;;;;26.40;11.87;;;;;;;-145.18;100.00;46754.16;5027982;28;20128;-69
2022/12/14 01:02:15;;;;;;;25.37;11.70;;;;;;;-145.18;100.00;46740.47;5010060;28;20099;-69
2022/12/14 01:04:40;;;;;;;25.87;11.43;;;;;;;-145.18;100.00;46763.91;5010219;28;20083;-69
2022/12/14 01:07:06;;;;;;;26.90;12.20;;;;;;;-145.18;100.00;46754.16;5030301;28;20529;-69
2022/12/14 01:09:31;;;;;;;25.17;11.93;;;;;;;-145.18;100.00;46748.28;5032040;28;20038;-69
2022/12/14 01:11:56;;;;;;;25.43;11.30;;;;;;;-145.18;100.00;46756.09;5031775;28;20120;-69
2022/12/14 01:14:22;;;;;;;25.40;11.87;;;;;;;-145.18;100.00;46760.00;5031346;28;20120;-69
2022/12/14 01:16:47;;;;;;;26.13;10.40;;;;;;;-145.18;100.00;46744.38;5031102;28;20065;-69
2022/12/14 01:19:13;;;;;;;25.87;12.20;;;;;;;-145.18;100.00;46758.06;5031382;28;20045;-69
2022/12/14 01:21:39;;;;;;;24.92;11.35;;;;;;;-145.18;100.00;46758.06;5031527;28;20041;-69
2022/12/14 01:24:05;;;;;;;25.23;11.40;;;;;;;-145.18;100.00;46754.16;5031597;28;20509;-69
2022/12/14 01:26:35;;;;;;;23.70;11.07;;;;;;;-145.18;100.00;46769.78;5031330;28;20037;-69
2022/12/14 01:29:01;;;;;;;24.45;12.20;;;;;;;-145.18;100.00;46761.97;5031303;28;20045;-69
2022/12/14 01:31:29;;;;;;;23.83;10.20;;;;;;;-145.18;100.00;46754.16;5030966;28;20030;-69
2022/12/14 01:33:55;;;;;;;25.02;11.50;;;;;;;-145.18;100.00;46758.06;5031480;28;20029;-69
2022/12/14 01:36:24;;;;;;;25.30;11.30;;;;;;;-145.18;100.00;46761.97;5012789;28;20033;-68
2022/12/14 01:38:55;;;;;;;24.83;10.57;;;;;;;-145.18;100.00;46771.75;5031169;28;20065;-69
2022/12/14 01:41:26;;;;;;;20.95;10.30;;;;;;;-145.18;100.00;46781.50;5030464;28;20104;-69
2022/12/14 01:43:54;;;;;;;25.30;10.77;;;;;;;-145.18;100.00;46771.75;5027835;28;20061;-69
2022/12/14 01:46:46;;;;;;;28.33;11.73;;;;;;;-145.18;100.00;46799.09;5029627;28;20148;-69
2022/12/14 01:49:36;;;;;;;21.33;9.50;;;;;;;-145.18;100.00;46783.47;5031182;28;20042;-69
2022/12/14 01:52:14;;;;;;;24.38;10.20;;;;;;;-145.18;100.00;46793.22;5028085;28;20061;-69
2022/12/14 01:54:44;;;;;;;30.08;10.18;;;;;;;-145.18;100.00;46806.91;5030788;28;20530;-69
2022/12/14 01:57:12;;;;;;;24.67;10.93;;;;;;;-145.18;100.00;46812.75;5030878;28;20029;-69
2022/12/14 01:59:42;;;;;;;19.23;9.63;;;;;;;-145.18;100.00;46812.75;5030994;28;20033;-69
2022/12/14 02:02:10;;;;;;;31.75;11.45;;;;;;;-145.18;100.00;46810.81;5030528;28;20031;-69
2022/12/14 02:04:41;;;;;;;23.25;11.07;;;;;;;-145.18;100.00;46816.66;5030946;28;20046;-69
2022/12/14 02:07:07;;;;;;;19.00;9.98;;;;;;;-145.18;100.00;46816.66;5029208;28;20029;-69
2022/12/14 02:09:37;;;;;;;23.50;9.90;;;;;;;-145.18;100.00;46818.63;5030751;28;20033;-69
2022/12/14 02:12:19;;;;;;;26.20;11.15;;;;;;;-145.18;100.00;46816.66;5030391;28;20518;-69
2022/12/14 02:14:45;;;;;;;20.05;9.43;;;;;;;-145.18;100.00;46826.44;5030747;28;20399;-69
2022/12/14 02:17:13;;;;;;;23.65;10.35;;;;;;;-145.18;100.00;46836.19;5029629;28;20494;-69
2022/12/14 02:19:42;;;;;;;30.33;10.48;;;;;;;-145.18;100.00;46847.91;5030541;28;20041;-69
2022/12/14 02:22:44;;;;;;;21.67;10.73;;;;;;;-145.18;100.00;46849.88;5030004;28;20037;-69
2022/12/14 02:26:08;;;;;;;24.35;10.25;;;;;;;-145.18;100.00;46857.69;5030036;28;20040;-69
2022/12/14 02:29:12;;;;;;;21.95;9.77;;;;;;;-145.18;100.00;46883.09;4948625;29;20052;-69
2022/12/14 02:31:56;;;;;;;23.30;10.27;;;;;;;-145.18;100.00;46869.41;5030188;28;20037;-69
2022/12/14 02:34:30;;;;;;;20.38;10.20;;;;;;;-145.18;100.00;46863.53;5029809;28;20493;-69
2022/12/14 02:37:31;;;;;;;26.20;11.15;;;;;;;-145.18;100.00;46873.31;5029792;28;20029;-69
2022/12/14 02:40:18;;;;;;;27.40;10.82;;;;;;;-145.18;100.00;46845.97;5012704;28;20064;-69
2022/12/14 02:43:13;;;;;;;21.48;10.25;;;;;;;-145.18;100.00;46863.53;5029687;28;20364;-69
2022/12/14 02:45:43;;;;;;;23.10;9.70;;;;;;;-145.18;100.00;46863.53;5027929;28;20038;-69
2022/12/14 02:48:23;;;;;;;24.17;10.68;;;;;;;-145.18;100.00;46861.59;5026408;28;20532;-69
2022/12/14 02:50:56;;;;;;;19.55;9.82;;;;;;;-145.18;100.00;46847.91;5029785;28;20565;-69
2022/12/14 02:53:35;;;;;;;23.52;10.68;;;;;;;-145.18;100.00;46840.09;5029733;28;20033;-69
2022/12/14 02:56:08;;;;;;;23.70;11.38;;;;;;;-145.18;100.00;46847.91;5030117;28;20375;-69
2022/12/14 02:58:41;;;;;;;19.30;9.32;;;;;;;-145.18;100.00;46847.91;5028330;28;20025;-69
2022/12/14 03:03:42;;;;;;;23.70;10.68;;;;;;;-145.18;100.00;46826.44;4390588;22;20072;-70
2022/12/14 03:06:24;;;;;;;22.40;10.40;;;;;;;-145.18;100.00;46845.97;5036041;28;20069;-70
2022/12/14 03:08:57;;;;;;;23.23;10.05;;;;;;;-145.18;100.00;46832.28;5028369;28;20401;-70
2022/12/14 03:11:33;;;;;;;24.20;10.30;;;;;;;-145.18;100.00;46832.28;5011168;28;20049;-70
2022/12/14 03:14:06;;;;;;;23.33;11.38;;;;;;;-145.18;100.00;46830.34;5010367;28;20465;-70
2022/12/14 03:16:43;;;;;;;22.10;9.88;;;;;;;-145.18;100.00;46851.81;5010996;28;20448;-70
2022/12/14 03:19:14;;;;;;;18.98;9.40;;;;;;;-145.18;100.00;46857.69;5014660;28;20041;-70
2022/12/14 03:21:46;;;;;;;22.05;9.60;;;;;;;-145.18;100.00;46859.63;5030731;28;20116;-70
2022/12/14 03:24:17;;;;;;;19.08;9.05;;;;;;;-145.18;100.00;46861.59;5030166;28;20133;-70
2022/12/14 03:26:48;;;;;;;22.73;10.23;;;;;;;-145.18;100.00;46863.53;5012744;28;20080;-70
2022/12/14 03:29:38;;;;;;;20.38;9.30;;;;;;;-145.18;100.00;46863.53;5027651;28;20032;-69
2022/12/14 03:32:17;;;;;;;21.33;9.07;;;;;;;-145.18;100.00;46879.19;5029620;28;20108;-69
2022/12/14 03:35:05;;;;;;;23.17;9.52;;;;;;;-145.18;100.00;46887.00;5030262;28;20397;-70
2022/12/14 03:37:40;;;;;;;23.63;9.05;;;;;;;-145.18;100.00;46890.91;5029947;28;20080;-70
2022/12/14 03:40:09;;;;;;;23.33;10.63;;;;;;;-145.18;100.00;46890.91;5016165;28;20041;-70
2022/12/14 03:42:58;;;;;;;20.65;9.80;;;;;;;-145.18;100.00;46875.28;5010295;28;20030;-69
2022/12/14 03:45:39;;;;;;;18.40;9.85;;;;;;;-145.18;100.00;46890.91;5023451;28;20033;-70
2022/12/14 03:48:40;;;;;;;22.35;9.32;;;;;;;-145.18;100.00;46881.13;5029775;28;20112;-70
2022/12/14 03:51:25;;;;;;;25.13;10.38;;;;;;;-145.18;100.00;46888.94;5012512;28;20045;-69
2022/12/14 03:54:19;;;;;;;22.10;10.20;;;;;;;-145.18;100.00;46869.41;4987026;28;20409;-69
2022/12/14 03:57:10;;;;;;;19.25;8.52;;;;;;;-145.18;100.00;46873.31;5024079;28;20030;-69
2022/12/14 03:59:49;;;;;;;24.98;9.85;;;;;;;-145.18;100.00;46892.84;5018511;28;20179;-69
2022/12/14 04:02:25;;;;;;;24.10;10.48;;;;;;;-145.18;100.00;46881.13;5011586;28;20454;-69
2022/12/14 04:05:09;;;;;;;20.83;9.35;;;;;;;-145.18;100.00;46885.03;5030228;28;20033;-69
2022/12/14 04:07:37;;;;;;;21.17;8.93;;;;;;;-145.18;100.00;46881.13;5030002;28;20078;-69
2022/12/14 04:19:01;;;;;;;19.45;9.60;;;;;;;-145.18;100.00;46890.91;5049477;28;20040;-70
2022/12/14 04:21:50;;;;;;;19.90;9.27;;;;;;;-145.18;100.00;46873.31;5050102;28;20411;-70
2022/12/14 04:27:43;;;;;;;21.30;10.27;;;;;;;-145.18;100.00;46879.19;5049464;28;20043;-69
2022/12/14 04:30:11;;;;;;;20.95;9.85;;;;;;;-145.18;100.00;46869.41;5010294;28;20121;-70
2022/12/14 04:32:45;;;;;;;24.42;9.57;;;;;;;-145.18;100.00;46859.63;5009994;28;20030;-70
2022/12/14 04:35:18;;;;;;;22.85;10.55;;;;;;;-145.18;100.00;46869.41;5009925;28;20064;-69
2022/12/14 04:37:49;;;;;;;21.58;9.85;;;;;;;-145.18;100.00;46859.63;5046795;28;20460;-70
2022/12/14 04:40:39;;;;;;;21.02;10.15;;;;;;;-145.18;100.00;46832.28;5033934;28;20116;-70
2022/12/14 04:43:12;;;;;;;26.05;10.75;;;;;;;-145.18;100.00;46847.91;5037213;28;20030;-70
2022/12/14 04:46:05;;;;;;;24.50;12.00;;;;;;;-145.18;100.00;46840.09;5034373;28;20029;-70
2022/12/14 04:48:30;;;;;;;23.50;10.70;;;;;;;-145.18;100.00;46830.34;5030096;28;20038;-69
2022/12/14 04:51:06;;;;;;;23.80;11.43;;;;;;;-145.18;100.00;46808.84;5034079;28;20040;-70
2022/12/14 04:53:34;;;;;;;25.30;11.70;;;;;;;-145.18;100.00;46814.72;5033966;28;20033;-69
2022/12/14 04:56:13;;;;;;;24.67;11.23;;;;;;;-145.18;100.00;46797.13;5039654;28;20420;-69
2022/12/14 04:58:39;;;;;;;21.75;11.88;;;;;;;-145.18;100.00;46803.00;5053824;28;20435;-69
2022/12/14 05:01:22;;;;;;;22.90;11.40;;;;;;;-145.18;100.00;46793.22;5054217;28;20033;-69
2022/12/14 05:04:06;;;;;;;23.15;11.57;;;;;;;-145.18;100.00;46781.50;5054000;28;20055;-69
2022/12/14 05:07:11;;;;;;;28.48;13.23;;;;;;;-145.18;100.00;46779.56;5044671;28;20095;-70
2022/12/14 05:09:54;;;;;;;29.40;13.07;;;;;;;-145.18;100.00;46761.97;5015791;28;20033;-69
2022/12/14 05:12:29;;;;;;;26.40;12.77;;;;;;;-145.18;100.00;46763.91;5024080;28;20033;-68
2022/12/14 05:15:12;;;;;;;25.05;11.60;;;;;;;-145.18;100.00;46758.06;5027640;28;20029;-69
2022/12/14 05:17:39;;;;;;;23.58;11.30;;;;;;;-145.18;100.00;46760.00;5011269;28;20537;-69
2022/12/14 05:20:11;;;;;;;27.58;11.77;;;;;;;-145.18;100.00;46760.00;5029394;28;20049;-69
2022/12/14 05:22:37;;;;;;;25.50;12.52;;;;;;;-145.18;100.00;46758.06;5027900;28;20036;-68
2022/12/14 05:25:03;;;;;;;25.07;13.43;;;;;;;-145.18;100.00;46752.19;5030283;28;20029;-69
2022/12/14 05:27:29;;;;;;;24.70;12.40;;;;;;;-145.18;100.00;46742.44;5013158;28;20289;-69
2022/12/14 05:29:55;;;;;;;25.30;12.97;;;;;;;-145.18;100.00;46742.44;5027726;28;20045;-69
2022/12/14 05:32:20;;;;;;;24.17;12.67;;;;;;;-145.18;100.00;46746.34;5033753;28;20399;-69
2022/12/14 05:34:45;;;;;;;27.00;13.27;;;;;;;-145.18;100.00;46742.44;5013370;28;20030;-69
2022/12/14 05:37:11;;;;;;;24.87;12.17;;;;;;;-145.18;100.00;46728.75;5032721;28;20053;-69
2022/12/14 05:39:36;;;;;;;28.03;12.80;;;;;;;-145.18;100.00;46736.56;5030292;28;20047;-69
2022/12/14 05:42:01;;;;;;;23.93;12.20;;;;;;;-145.18;100.00;46717.03;5028926;28;20033;-69
2022/12/14 05:44:27;;;;;;;24.93;11.50;;;;;;;-145.18;100.00;46724.84;5024041;28;20061;-68
2022/12/14 05:46:52;;;;;;;25.17;13.27;;;;;;;-145.18;100.00;46732.66;5026362;28;20044;-69
2022/12/14 05:49:18;;;;;;;27.30;11.83;;;;;;;-145.18;100.00;46719.00;5052689;28;20040;-69
2022/12/14 05:51:43;;;;;;;24.03;12.63;;;;;;;-145.18;100.00;46728.75;5052178;28;20464;-69
2022/12/14 05:54:09;;;;;;;29.20;12.87;;;;;;;-145.18;100.00;46726.81;5052602;28;20114;-69
2022/12/14 05:56:34;;;;;;;28.17;13.30;;;;;;;-145.18;100.00;46728.75;5038453;28;20026;-70
2022/12/14 05:59:01;;;;;;;29.40;12.83;;;;;;;-145.18;100.00;46730.72;5031990;28;20028;-69
2022/12/14 06:01:27;;;;;;;27.42;12.48;;;;;;;-145.18;100.00;46726.81;5029169;28;20068;-69
2022/12/14 06:03:52;;;;;;;22.47;12.43;;;;;;;-145.18;100.00;46722.91;5028945;28;20119;-69
2022/12/14 06:06:18;;;;;;;23.07;11.30;;;;;;;-145.18;100.00;46726.81;5040953;28;20451;-69
2022/12/14 06:08:44;;;;;;;24.97;11.97;;;;;;;-145.18;100.00;46726.81;5049573;28;20021;-69
2022/12/14 06:11:15;;;;;;;22.40;12.25;;;;;;;-145.18;100.00;46734.63;5032906;28;20026;-70
2022/12/14 06:13:42;;;;;;;29.95;12.00;;;;;;;-145.18;100.00;46730.72;5030958;28;20025;-69
2022/12/14 06:16:14;;;;;;;28.65;11.57;;;;;;;-145.18;100.00;46740.47;5031907;28;20037;-69
2022/12/14 06:18:45;;;;;;;23.52;11.73;;;;;;;-145.18;100.00;46738.53;5031481;28;20033;-69
2022/12/14 06:21:12;;;;;;;22.55;12.02;;;;;;;-145.18;100.00;46738.53;5031828;28;20035;-69
2022/12/14 06:23:38;;;;;;;23.35;11.35;;;;;;;-145.18;100.00;46752.19;5032092;28;20041;-69
2022/12/14 06:26:04;;;;;;;24.63;12.33;;;;;;;-145.18;100.00;46744.38;5031493;28;20028;-69
2022/12/14 06:28:29;;;;;;;25.60;11.57;;;;;;;-145.18;100.00;46736.56;5031649;28;20458;-69
2022/12/14 06:30:54;;;;;;;28.37;11.90;;;;;;;-145.18;100.00;46740.47;5031442;28;20034;-69
2022/12/14 06:33:20;;;;;;;27.97;11.77;;;;;;;-145.18;100.00;46732.66;5013492;28;20401;-69
2022/12/14 06:35:46;;;;;;;24.60;11.43;;;;;;;-145.18;100.00;46744.38;5031198;28;20474;-69
2022/12/14 06:38:13;;;;;;;24.57;11.80;;;;;;;-145.18;100.00;46732.66;5031158;28;20056;-69
2022/12/14 06:40:39;;;;;;;26.60;12.50;;;;;;;-145.18;100.00;46750.25;5031489;28;20068;-69
2022/12/14 06:43:05;;;;;;;25.57;12.23;;;;;;;-145.18;100.00;46722.91;5012694;28;20057;-69
2022/12/14 06:45:31;;;;;;;21.57;10.93;;;;;;;-145.18;100.00;46738.53;5044329;28;20099;-69
2022/12/14 06:47:57;;;;;;;27.67;12.40;;;;;;;-145.18;100.00;46732.66;5031108;28;20044;-69
2022/12/14 06:50:23;;;;;;;22.30;11.60;;;;;;;-145.18;100.00;46750.25;5029949;28;20148;-69
2022/12/14 06:52:49;;;;;;;21.67;11.67;;;;;;;-145.18;100.00;46754.16;5042118;28;20132;-69
2022/12/14 06:55:14;;;;;;;24.00;12.23;;;;;;;-145.18;100.00;46752.19;5049212;28;20064;-69
2022/12/14 06:57:40;;;;;;;26.50;11.37;;;;;;;-145.18;100.00;46750.25;5029826;28;20355;-69
2022/12/14 07:00:07;;;;;;;22.00;10.50;;;;;;;-145.18;100.00;46750.25;5031015;28;20037;-69
2022/12/14 07:02:32;;;;;;;29.45;11.48;;;;;;;-145.18;100.00;46742.44;5011978;28;20124;-69
2022/12/14 07:04:57;;;;;;;27.70;12.20;;;;;;;-145.18;100.00;46761.97;5028448;28;20137;-69
2022/12/14 07:07:23;;;;;;;20.30;10.17;;;;;;;-145.18;100.00;46763.91;5030885;28;20038;-69
2022/12/14 07:09:48;;;;;;;24.90;11.83;;;;;;;-145.18;100.00;46758.06;5030662;28;20369;-69
2022/12/14 07:12:14;;;;;;;20.50;10.40;;;;;;;-145.18;100.00;46769.78;5030352;28;20033;-69
2022/12/14 07:14:39;;;;;;;24.57;11.23;;;;;;;-145.18;100.00;46781.50;5030380;28;20499;-69
2022/12/14 07:17:05;;;;;;;31.53;13.63;;;;;;;-145.18;100.00;46771.75;5012690;28;20353;-69
2022/12/14 07:19:30;;;;;;;23.30;11.07;;;;;;;-145.18;100.00;46769.78;5030577;28;20117;-69
2022/12/14 07:21:55;;;;;;;23.67;10.93;;;;;;;-145.18;100.00;46773.69;5030376;28;20485;-69
2022/12/14 07:24:21;;;;;;;26.93;11.37;;;;;;;-145.18;100.00;46777.59;5031635;28;20481;-69
2022/12/14 07:26:46;;;;;;;19.30;9.83;;;;;;;-145.18;100.00;46773.69;5050398;28;20037;-69
2022/12/14 07:29:13;;;;;;;22.83;10.57;;;;;;;-145.18;100.00;46785.41;5050336;28;20048;-69
2022/12/14 07:31:39;;;;;;;21.05;10.98;;;;;;;-145.18;100.00;46803.00;5049017;28;20029;-69
2022/12/14 07:34:04;;;;;;;26.27;12.10;;;;;;;-145.18;100.00;46797.13;5035134;28;20039;-69
2022/12/14 07:36:31;;;;;;;22.20;11.30;;;;;;;-145.18;100.00;46785.41;5030290;28;20567;-69
2022/12/14 07:38:57;;;;;;;22.02;11.23;;;;;;;-145.18;100.00;46789.31;5033776;28;20032;-69
2022/12/14 07:41:29;;;;;;;25.47;11.93;;;;;;;-145.18;100.00;46787.38;5049731;28;20043;-69
2022/12/14 07:43:55;;;;;;;22.60;10.88;;;;;;;-145.18;100.00;46779.56;5049370;28;20485;-69
2022/12/14 07:46:23;;;;;;;26.77;12.88;;;;;;;-145.18;100.00;46775.66;5032277;28;20414;-69
2022/12/14 07:48:51;;;;;;;31.20;12.70;;;;;;;-145.18;100.00;46775.66;5049795;28;20061;-69
2022/12/14 07:51:19;;;;;;;26.27;12.32;;;;;;;-145.18;100.00;46773.69;5030097;28;20033;-69
2022/12/14 07:53:45;;;;;;;31.17;13.70;;;;;;;-145.18;100.00;46763.91;5030221;28;20037;-69
2022/12/14 07:56:13;;;;;;;36.80;16.07;;;;;;;-145.18;100.00;46756.09;5029888;28;20036;-69
2022/12/14 07:58:39;;;;;;;28.95;13.35;;;;;;;-145.18;100.00;46767.84;5012115;28;20033;-69
2022/12/14 08:01:14;;;;;;;29.13;14.83;;;;;;;-145.18;100.00;46746.34;5029695;28;20038;-69
2022/12/14 08:03:51;;;;;;;30.30;14.82;;;;;;;-145.18;100.00;46752.19;5029490;28;20103;-69
2022/12/14 08:06:18;;;;;;;34.58;14.70;;;;;;;-145.18;100.00;46746.34;5029510;28;20502;-69
2022/12/14 08:08:44;;;;;;;31.83;14.05;;;;;;;-145.18;100.00;46748.28;5030112;28;20521;-69
2022/12/14 08:11:10;;;;;;;32.20;14.27;;;;;;;-145.18;100.00;46746.34;5030071;28;20041;-69
2022/12/14 08:13:37;;;;;;;31.20;14.18;;;;;;;-145.18;100.00;46744.38;5029801;28;20413;-69
2022/12/14 08:16:08;;;;;;;35.50;14.55;;;;;;;-145.18;100.00;46740.47;5032044;28;20067;-68
2022/12/14 08:18:34;;;;;;;29.67;14.45;;;;;;;-145.18;100.00;46738.53;5033913;28;20105;-68
2022/12/14 08:21:01;;;;;;;30.23;14.57;;;;;;;-145.18;100.00;46746.34;5033798;28;20041;-69
2022/12/14 08:23:26;;;;;;;31.77;15.13;;;;;;;-145.18;100.00;46744.38;5033629;28;20033;-69
2022/12/14 08:25:53;;;;;;;34.10;15.43;;;;;;;-145.18;100.00;46740.47;5034139;28;20092;-69
2022/12/14 08:28:19;;;;;;;32.25;14.77;;;;;;;-145.18;100.00;46736.56;5033276;28;20474;-68
2022/12/14 08:30:45;;;;;;;29.77;15.10;;;;;;;-145.18;100.00;46750.25;5038131;28;20095;-69
2022/12/14 08:33:10;;;;;;;29.30;15.13;;;;;;;-145.18;100.00;46742.44;5043192;28;20037;-69
2022/12/14 08:35:35;;;;;;;31.57;14.47;;;;;;;-145.18;100.00;46734.63;5039343;28;20030;-69
2022/12/14 08:38:01;;;;;;;32.10;15.20;;;;;;;-145.18;100.00;46726.81;5033483;28;20119;-69
2022/12/14 08:40:27;;;;;;;28.03;14.30;;;;;;;-145.18;100.00;46734.63;5032893;28;20079;-68
2022/12/14 08:42:52;;;;;;;40.13;15.07;;;;;;;-145.18;100.00;46724.84;5033111;28;20037;-69
2022/12/14 08:45:17;;;;;;;27.10;14.10;;;;;;;-145.18;100.00;46719.00;5038319;28;20027;-69
2022/12/14 08:47:43;;;;;;;27.83;13.00;;;;;;;-145.18;100.00;46730.72;5038812;28;20517;-69
2022/12/14 08:50:09;;;;;;;30.17;13.90;;;;;;;-145.18;100.00;46720.94;5027286;28;20061;-69
2022/12/14 08:52:35;;;;;;;32.00;13.65;;;;;;;-145.18;100.00;46724.84;5018012;28;20032;-69
2022/12/14 08:55:00;;;;;;;28.43;13.37;;;;;;;-145.18;100.00;46720.94;5046192;28;20026;-69
2022/12/14 08:57:25;;;;;;;32.13;14.27;;;;;;;-145.18;100.00;46738.53;5032918;28;20083;-69
2022/12/14 08:59:51;;;;;;;30.57;13.50;;;;;;;-145.18;100.00;46734.63;5042816;28;20171;-69
2022/12/14 09:02:16;;;;;;;32.27;13.83;;;;;;;-145.18;100.00;46754.16;5032946;28;20644;-69
2022/12/14 09:04:41;;;;;;;31.87;13.83;;;;;;;-145.18;100.00;46738.53;5032823;28;20139;-69
2022/12/14 09:07:07;;;;;;;27.60;12.50;;;;;;;-145.18;100.00;46761.97;5041198;28;20040;-69
2022/12/14 09:09:34;;;;;;;26.63;12.40;;;;;;;-145.18;100.00;46785.41;5038729;28;20033;-69
2022/12/14 09:12:02;;;;;;;25.30;12.32;;;;;;;-145.18;100.00;46812.75;5041020;28;20524;-69
2022/12/14 09:14:28;;;;;;;23.95;11.60;;;;;;;-145.18;100.00;46816.66;5025913;28;20556;-69
2022/12/14 09:16:53;;;;;;;23.33;10.43;;;;;;;-145.18;100.00;46818.63;5036053;28;20551;-69
2022/12/14 09:19:19;;;;;;;23.13;11.13;;;;;;;-145.18;100.00;46834.25;5022726;28;20037;-69
2022/12/14 09:21:44;;;;;;;23.13;11.13;;;;;;;-145.18;100.00;46863.53;5045456;28;20037;-69
2022/12/14 09:24:10;;;;;;;26.63;11.53;;;;;;;-145.18;100.00;46867.44;5049087;28;20503;-70
2022/12/14 09:26:36;;;;;;;20.55;10.98;;;;;;;-145.18;100.00;46890.91;5046945;28;20463;-69
2022/12/14 09:29:01;;;;;;;26.53;11.13;;;;;;;-145.18;100.00;46912.38;5036240;28;20116;-69
2022/12/14 09:31:27;;;;;;;21.60;10.97;;;;;;;-145.18;100.00;46924.09;5037519;28;20025;-69
2022/12/14 09:33:53;;;;;;;27.77;10.77;;;;;;;-145.18;100.00;46953.41;5046435;28;20064;-68
2022/12/14 09:36:24;;;;;;;25.67;11.50;;;;;;;-145.18;100.00;46988.56;5037134;28;20274;-69
2022/12/14 09:38:50;;;;;;;27.73;12.38;;;;;;;-145.18;100.00;47004.19;5039831;28;20450;-69
2022/12/14 09:41:34;;;;;;;30.65;13.57;;;;;;;-145.18;100.00;47008.09;5035696;28;20049;-69
2022/12/14 09:44:18;;;;;;;39.75;21.48;;;;;;;-145.18;100.00;47004.19;5032648;28;20057;-71
2022/12/14 09:47:18;;;;;;;27.23;14.05;;;;;;;-145.18;100.00;47041.31;5020027;28;20029;-74
2022/12/14 09:49:54;;;;;;;42.03;20.17;;;;;;;-145.18;100.00;47099.91;5046568;28;20028;-78
2022/12/14 09:52:30;;;;;;;33.35;17.48;;;;;;;-145.18;100.00;47103.81;5041340;28;20033;-81
2022/12/14 09:54:57;;;;;;;24.50;13.68;;;;;;;-145.18;100.00;47139.00;5049436;28;20104;-78
2022/12/14 09:57:36;;;;;;;26.98;10.90;;;;;;;-145.18;100.00;47176.09;5032820;28;20041;-76
2022/12/14 10:00:10;;;;;;;19.27;9.90;;;;;;;-145.18;100.00;47203.47;5031326;28;20060;-75
2022/12/14 10:02:50;;;;;;;22.15;10.32;;;;;;;-145.18;100.00;47236.66;5039181;28;20033;-74
2022/12/14 10:06:00;;;;;;;25.70;10.30;;;;;;;-145.18;100.00;47246.44;5011863;28;20041;-77
2022/12/14 10:08:50;;;;;;;21.92;9.85;;;;;;;-145.18;100.00;47320.69;5022062;28;20029;-79
2022/12/14 10:11:44;;;;;;;21.25;10.25;;;;;;;-145.18;100.00;47377.34;5021260;28;20088;-79
2022/12/14 10:14:18;;;;;;;17.60;9.15;;;;;;;-145.18;100.00;47500.41;5020892;28;20072;-78
2022/12/14 10:17:08;;;;;;;20.77;9.50;;;;;;;-145.18;100.00;47613.75;5010581;28;20516;-78
2022/12/14 10:19:49;;;;;;;17.65;9.07;;;;;;;-145.18;100.00;47842.34;5027091;28;20059;-77
2022/12/14 10:22:18;;;;;;;20.75;9.63;;;;;;;-145.18;100.00;47902.91;5011690;28;20034;-77
2022/12/14 10:24:49;;;;;;;19.17;9.02;;;;;;;-145.18;100.00;47916.59;5016317;28;20026;-76
2022/12/14 10:27:26;;;;;;;18.02;9.27;;;;;;;-145.18;100.00;47961.53;5018604;28;20525;-77
2022/12/14 10:30:04;;;;;;;17.38;9.70;;;;;;;-145.18;100.00;47945.91;5014522;28;20037;-77
2022/12/14 10:32:44;;;;;;;18.77;9.43;;;;;;;-145.18;100.00;47961.53;5028099;28;20128;-77
2022/12/14 10:35:36;;;;;;;21.98;9.82;;;;;;;-145.18;100.00;47918.53;5010864;28;20033;-77
2022/12/14 10:38:12;;;;;;;20.33;9.80;;;;;;;-145.18;100.00;47930.28;5017786;28;20041;-78
2022/12/14 10:40:47;;;;;;;18.90;9.27;;;;;;;-145.18;100.00;47924.41;5021253;28;20502;-79
2022/12/14 10:43:42;;;;;;;20.70;9.23;;;;;;;-145.18;100.00;47914.63;5043847;28;20112;-78
2022/12/14 10:46:37;;;;;;;20.42;9.35;;;;;;;-145.18;100.00;47906.81;5016250;28;20529;-77
2022/12/14 10:49:18;;;;;;;18.73;8.50;;;;;;;-145.18;100.00;47863.84;5022988;28;20509;-76
2022/12/14 10:51:57;;;;;;;18.85;9.50;;;;;;;-145.18;100.00;47883.38;5029191;28;20033;-76
2022/12/14 10:54:29;;;;;;;21.73;9.60;;;;;;;-145.18;100.00;47857.97;5021142;28;20061;-75
2022/12/14 10:56:55;;;;;;;19.85;9.90;;;;;;;-145.18;100.00;47883.38;5013671;28;20419;-75
2022/12/14 10:59:25;;;;;;;20.97;9.73;;;;;;;-145.18;100.00;47859.94;4995633;28;20025;-75
2022/12/14 11:02:02;;;;;;;20.20;9.05;;;;;;;-145.18;100.00;47867.75;5020221;28;20057;-75
2022/12/14 11:04:31;;;;;;;18.67;10.10;;;;;;;-145.18;100.00;47854.06;5034587;28;20409;-74
2022/12/14 11:07:00;;;;;;;24.35;10.13;;;;;;;-145.18;100.00;47856.03;5032498;28;20032;-74
2022/12/14 11:09:26;;;;;;;17.48;8.10;;;;;;;-145.18;100.00;47856.03;5034254;28;20091;-74
2022/12/14 11:12:01;;;;;;;20.10;9.73;;;;;;;-145.18;100.00;47857.97;5013678;28;20041;-74
2022/12/14 11:14:27;;;;;;;18.90;10.07;;;;;;;-145.18;100.00;47848.19;5042111;28;20034;-74
2022/12/14 11:16:53;;;;;;;21.50;9.13;;;;;;;-145.18;100.00;47836.47;5030044;28;20056;-73
2022/12/14 11:19:21;;;;;;;18.20;9.17;;;;;;;-145.18;100.00;47820.84;5028206;28;20405;-73
2022/12/14 11:21:47;;;;;;;17.73;9.25;;;;;;;-145.18;100.00;47811.09;5031224;28;20036;-73
2022/12/14 11:24:24;;;;;;;17.10;9.23;;;;;;;-145.18;100.00;47834.53;5034315;28;20036;-73
2022/12/14 11:26:53;;;;;;;17.88;9.05;;;;;;;-145.18;100.00;47815.00;5027889;28;20033;-73
2022/12/14 11:29:29;;;;;;;15.13;8.55;;;;;;;-145.18;100.00;47830.63;5028532;28;20454;-74